sensor_id;sensor_type;location;lat;lon;timestamp;temperature;humidity
60353;DHT22;46196;52.970;6.954;2023-11-22T00:00:16;2.70;99.90
60353;DHT22;46196;52.970;6.954;2023-11-22T00:02:41;2.70;99.90
60353;DHT22;46196;52.970;6.954;2023-11-22T00:05:07;4.70;99.90
60353;DHT22;46196;52.970;6.954;2023-11-22T00:07:34;0.90;99.90
60353;DHT22;46196;52.970;6.954;2023-11-22T00:10:00;1.20;99.90
60353;DHT22;46196;52.970;6.954;2023-11-22T00:12:27;2.50;99.90
60353;DHT22;46196;52.970;6.954;2023-11-22T00:14:53;2.30;99.90
60353;DHT22;46196;52.970;6.954;2023-11-22T00:17:19;1.60;99.90
60353;DHT22;46196;52.970;6.954;2023-11-22T00:19:45;2.80;99.90
60353;DHT22;46196;52.970;6.954;2023-11-22T00:22:11;2.50;99.90
60353;DHT22;46196;52.970;6.954;2023-11-22T00:24:40;2.90;99.90
60353;DHT22;46196;52.970;6.954;2023-11-22T00:27:07;2.50;99.90
60353;DHT22;46196;52.970;6.954;2023-11-22T00:29:33;3.70;99.90
60353;DHT22;46196;52.970;6.954;2023-11-22T00:31:59;2.40;99.90
60353;DHT22;46196;52.970;6.954;2023-11-22T00:34:25;0.90;99.90
60353;DHT22;46196;52.970;6.954;2023-11-22T00:36:51;0.80;99.90
60353;DHT22;46196;52.970;6.954;2023-11-22T00:41:44;1.90;99.90
60353;DHT22;46196;52.970;6.954;2023-11-22T00:44:10;3.40;99.90
60353;DHT22;46196;52.970;6.954;2023-11-22T00:46:36;3.30;99.90
60353;DHT22;46196;52.970;6.954;2023-11-22T00:49:04;4.80;99.90
60353;DHT22;46196;52.970;6.954;2023-11-22T00:51:31;3.70;99.90
60353;DHT22;46196;52.970;6.954;2023-11-22T00:53:57;1.90;99.90
60353;DHT22;46196;52.970;6.954;2023-11-22T00:56:23;0.60;99.90
60353;DHT22;46196;52.970;6.954;2023-11-22T00:58:49;3.80;99.90
60353;DHT22;46196;52.970;6.954;2023-11-22T01:01:16;0.20;99.90
60353;DHT22;46196;52.970;6.954;2023-11-22T01:03:43;0.80;99.90
60353;DHT22;46196;52.970;6.954;2023-11-22T01:06:09;0.90;99.90
60353;DHT22;46196;52.970;6.954;2023-11-22T01:08:35;3.20;99.90
60353;DHT22;46196;52.970;6.954;2023-11-22T01:11:03;1.90;99.90
60353;DHT22;46196;52.970;6.954;2023-11-22T01:13:33;1.80;99.90
60353;DHT22;46196;52.970;6.954;2023-11-22T01:16:11;1.00;99.90
60353;DHT22;46196;52.970;6.954;2023-11-22T01:18:38;1.40;99.90
60353;DHT22;46196;52.970;6.954;2023-11-22T01:21:04;0.50;99.90
60353;DHT22;46196;52.970;6.954;2023-11-22T01:23:31;0.60;99.90
60353;DHT22;46196;52.970;6.954;2023-11-22T01:26:00;0.10;99.90
60353;DHT22;46196;52.970;6.954;2023-11-22T01:28:26;-1.20;99.90
60353;DHT22;46196;52.970;6.954;2023-11-22T01:30:55;3.30;99.90
60353;DHT22;46196;52.970;6.954;2023-11-22T01:33:22;2.40;99.90
60353;DHT22;46196;52.970;6.954;2023-11-22T01:38:15;0.80;99.90
60353;DHT22;46196;52.970;6.954;2023-11-22T01:40:47;1.90;99.90
60353;DHT22;46196;52.970;6.954;2023-11-22T01:43:19;3.30;99.90
60353;DHT22;46196;52.970;6.954;2023-11-22T01:45:46;3.90;99.90
60353;DHT22;46196;52.970;6.954;2023-11-22T01:48:12;1.80;99.90
60353;DHT22;46196;52.970;6.954;2023-11-22T01:50:42;1.50;99.90
60353;DHT22;46196;52.970;6.954;2023-11-22T01:53:11;2.00;99.90
60353;DHT22;46196;52.970;6.954;2023-11-22T01:55:39;4.00;99.90
60353;DHT22;46196;52.970;6.954;2023-11-22T01:58:05;1.70;99.90
60353;DHT22;46196;52.970;6.954;2023-11-22T02:00:38;1.00;99.90
60353;DHT22;46196;52.970;6.954;2023-11-22T02:03:06;2.40;99.90
60353;DHT22;46196;52.970;6.954;2023-11-22T02:05:32;4.40;99.90
60353;DHT22;46196;52.970;6.954;2023-11-22T02:07:58;3.00;99.90
60353;DHT22;46196;52.970;6.954;2023-11-22T02:10:24;3.60;99.90
60353;DHT22;46196;52.970;6.954;2023-11-22T02:12:50;0.90;99.90
60353;DHT22;46196;52.970;6.954;2023-11-22T02:15:16;0.40;99.90
60353;DHT22;46196;52.970;6.954;2023-11-22T02:17:41;3.30;99.90
60353;DHT22;46196;52.970;6.954;2023-11-22T02:20:07;0.20;99.90
60353;DHT22;46196;52.970;6.954;2023-11-22T02:22:46;3.10;99.90
60353;DHT22;46196;52.970;6.954;2023-11-22T02:25:12;1.20;99.90
60353;DHT22;46196;52.970;6.954;2023-11-22T02:30:05;1.20;99.90
60353;DHT22;46196;52.970;6.954;2023-11-22T02:32:32;1.20;99.90
60353;DHT22;46196;52.970;6.954;2023-11-22T02:34:59;-0.60;99.90
60353;DHT22;46196;52.970;6.954;2023-11-22T02:37:25;1.10;99.90
60353;DHT22;46196;52.970;6.954;2023-11-22T02:40:20;-0.20;99.90
60353;DHT22;46196;52.970;6.954;2023-11-22T02:42:47;2.90;99.90
60353;DHT22;46196;52.970;6.954;2023-11-22T02:45:15;3.00;99.90
60353;DHT22;46196;52.970;6.954;2023-11-22T02:47:41;-0.80;99.90
60353;DHT22;46196;52.970;6.954;2023-11-22T02:50:12;0.70;99.90
60353;DHT22;46196;52.970;6.954;2023-11-22T02:52:38;1.00;99.90
60353;DHT22;46196;52.970;6.954;2023-11-22T02:55:04;1.00;99.90
60353;DHT22;46196;52.970;6.954;2023-11-22T02:57:30;1.70;99.90
60353;DHT22;46196;52.970;6.954;2023-11-22T02:59:57;2.70;99.90
60353;DHT22;46196;52.970;6.954;2023-11-22T03:02:23;0.00;99.90
60353;DHT22;46196;52.970;6.954;2023-11-22T03:04:50;3.40;99.90
60353;DHT22;46196;52.970;6.954;2023-11-22T03:07:15;1.50;99.90
60353;DHT22;46196;52.970;6.954;2023-11-22T03:09:41;1.00;99.90
60353;DHT22;46196;52.970;6.954;2023-11-22T03:12:09;1.00;99.90
60353;DHT22;46196;52.970;6.954;2023-11-22T03:14:35;2.70;99.90
60353;DHT22;46196;52.970;6.954;2023-11-22T03:17:01;2.30;99.90
60353;DHT22;46196;52.970;6.954;2023-11-22T03:19:27;0.90;99.90
60353;DHT22;46196;52.970;6.954;2023-11-22T03:21:52;2.70;99.90
60353;DHT22;46196;52.970;6.954;2023-11-22T03:24:18;1.60;99.90
60353;DHT22;46196;52.970;6.954;2023-11-22T03:26:46;0.80;99.90
60353;DHT22;46196;52.970;6.954;2023-11-22T03:29:11;-0.20;99.90
60353;DHT22;46196;52.970;6.954;2023-11-22T03:31:41;0.90;99.90
60353;DHT22;46196;52.970;6.954;2023-11-22T03:34:07;0.70;99.90
60353;DHT22;46196;52.970;6.954;2023-11-22T03:38:59;0.90;99.90
60353;DHT22;46196;52.970;6.954;2023-11-22T03:41:25;0.40;99.90
60353;DHT22;46196;52.970;6.954;2023-11-22T03:43:50;-1.00;99.90
60353;DHT22;46196;52.970;6.954;2023-11-22T03:46:16;-1.20;99.90
60353;DHT22;46196;52.970;6.954;2023-11-22T03:48:42;0.90;99.90
60353;DHT22;46196;52.970;6.954;2023-11-22T03:51:08;-0.50;99.90
60353;DHT22;46196;52.970;6.954;2023-11-22T03:53:33;2.80;99.90
60353;DHT22;46196;52.970;6.954;2023-11-22T03:55:59;2.80;99.90
60353;DHT22;46196;52.970;6.954;2023-11-22T03:58:25;0.60;99.90
60353;DHT22;46196;52.970;6.954;2023-11-22T04:00:51;0.90;99.90
60353;DHT22;46196;52.970;6.954;2023-11-22T04:03:18;-0.50;99.90
60353;DHT22;46196;52.970;6.954;2023-11-22T04:05:44;0.90;99.90
60353;DHT22;46196;52.970;6.954;2023-11-22T04:08:10;0.80;99.90
60353;DHT22;46196;52.970;6.954;2023-11-22T04:10:35;2.20;99.90
60353;DHT22;46196;52.970;6.954;2023-11-22T04:13:01;1.30;99.90
60353;DHT22;46196;52.970;6.954;2023-11-22T04:15:27;-0.20;99.90
60353;DHT22;46196;52.970;6.954;2023-11-22T04:17:52;2.60;99.90
60353;DHT22;46196;52.970;6.954;2023-11-22T04:20:20;2.80;99.90
60353;DHT22;46196;52.970;6.954;2023-11-22T04:22:45;-0.90;99.90
60353;DHT22;46196;52.970;6.954;2023-11-22T04:25:11;0.80;99.90
60353;DHT22;46196;52.970;6.954;2023-11-22T04:27:41;2.00;99.90
60353;DHT22;46196;52.970;6.954;2023-11-22T04:30:08;2.50;99.90
60353;DHT22;46196;52.970;6.954;2023-11-22T04:32:35;-0.90;99.90
60353;DHT22;46196;52.970;6.954;2023-11-22T04:35:02;0.90;99.90
60353;DHT22;46196;52.970;6.954;2023-11-22T04:37:31;4.00;99.90
60353;DHT22;46196;52.970;6.954;2023-11-22T04:40:01;2.80;99.90
60353;DHT22;46196;52.970;6.954;2023-11-22T04:42:29;-0.80;99.90
60353;DHT22;46196;52.970;6.954;2023-11-22T04:44:55;-0.30;99.90
60353;DHT22;46196;52.970;6.954;2023-11-22T04:47:20;2.30;99.90
60353;DHT22;46196;52.970;6.954;2023-11-22T04:49:49;-0.30;99.90
60353;DHT22;46196;52.970;6.954;2023-11-22T04:54:40;-0.90;99.90
60353;DHT22;46196;52.970;6.954;2023-11-22T04:57:07;1.30;99.90
60353;DHT22;46196;52.970;6.954;2023-11-22T04:59:33;-0.90;99.90
60353;DHT22;46196;52.970;6.954;2023-11-22T05:01:59;1.40;99.90
60353;DHT22;46196;52.970;6.954;2023-11-22T05:04:24;0.00;99.90
60353;DHT22;46196;52.970;6.954;2023-11-22T05:06:53;-0.80;99.90
60353;DHT22;46196;52.970;6.954;2023-11-22T05:09:18;0.60;99.90
60353;DHT22;46196;52.970;6.954;2023-11-22T05:11:44;3.70;99.90
60353;DHT22;46196;52.970;6.954;2023-11-22T05:14:12;-1.20;99.90
60353;DHT22;46196;52.970;6.954;2023-11-22T05:16:38;1.60;99.90
60353;DHT22;46196;52.970;6.954;2023-11-22T05:19:04;-1.00;99.90
60353;DHT22;46196;52.970;6.954;2023-11-22T05:21:31;3.10;99.90
60353;DHT22;46196;52.970;6.954;2023-11-22T05:23:57;-0.10;99.90
60353;DHT22;46196;52.970;6.954;2023-11-22T05:26:23;1.80;99.90
60353;DHT22;46196;52.970;6.954;2023-11-22T05:28:49;2.20;99.90
60353;DHT22;46196;52.970;6.954;2023-11-22T05:31:14;-0.70;99.90
60353;DHT22;46196;52.970;6.954;2023-11-22T05:33:40;3.70;99.90
60353;DHT22;46196;52.970;6.954;2023-11-22T05:36:06;0.70;99.90
60353;DHT22;46196;52.970;6.954;2023-11-22T05:38:33;1.90;99.90
60353;DHT22;46196;52.970;6.954;2023-11-22T05:41:02;0.60;99.90
60353;DHT22;46196;52.970;6.954;2023-11-22T05:43:28;2.10;99.90
60353;DHT22;46196;52.970;6.954;2023-11-22T05:45:54;-1.50;99.90
60353;DHT22;46196;52.970;6.954;2023-11-22T05:48:19;2.60;99.90
60353;DHT22;46196;52.970;6.954;2023-11-22T05:50:46;-0.40;99.90
60353;DHT22;46196;52.970;6.954;2023-11-22T05:53:12;0.00;99.90
60353;DHT22;46196;52.970;6.954;2023-11-22T05:55:48;-1.50;99.90
60353;DHT22;46196;52.970;6.954;2023-11-22T05:58:14;-1.00;99.90
60353;DHT22;46196;52.970;6.954;2023-11-22T06:00:45;2.10;99.90
60353;DHT22;46196;52.970;6.954;2023-11-22T06:03:12;1.40;99.90
60353;DHT22;46196;52.970;6.954;2023-11-22T06:05:39;-1.70;99.90
60353;DHT22;46196;52.970;6.954;2023-11-22T06:08:04;-1.40;99.90
60353;DHT22;46196;52.970;6.954;2023-11-22T06:10:30;-0.60;99.90
60353;DHT22;46196;52.970;6.954;2023-11-22T06:12:56;-0.20;99.90
60353;DHT22;46196;52.970;6.954;2023-11-22T06:15:22;0.50;99.90
60353;DHT22;46196;52.970;6.954;2023-11-22T06:17:49;-0.60;99.90
60353;DHT22;46196;52.970;6.954;2023-11-22T06:20:15;-0.90;99.90
60353;DHT22;46196;52.970;6.954;2023-11-22T06:22:41;2.60;99.90
60353;DHT22;46196;52.970;6.954;2023-11-22T06:25:11;1.80;99.90
60353;DHT22;46196;52.970;6.954;2023-11-22T06:27:38;0.50;99.90
60353;DHT22;46196;52.970;6.954;2023-11-22T06:30:04;1.20;99.90
60353;DHT22;46196;52.970;6.954;2023-11-22T06:32:32;1.60;99.90
60353;DHT22;46196;52.970;6.954;2023-11-22T06:34:59;2.50;99.90
60353;DHT22;46196;52.970;6.954;2023-11-22T06:37:25;-1.20;99.90
60353;DHT22;46196;52.970;6.954;2023-11-22T06:39:51;-1.30;99.90
60353;DHT22;46196;52.970;6.954;2023-11-22T06:42:17;0.50;99.90
60353;DHT22;46196;52.970;6.954;2023-11-22T06:44:43;2.80;99.90
60353;DHT22;46196;52.970;6.954;2023-11-22T06:49:35;0.30;99.90
60353;DHT22;46196;52.970;6.954;2023-11-22T06:52:00;-0.80;99.90
60353;DHT22;46196;52.970;6.954;2023-11-22T06:54:26;-1.00;99.90
60353;DHT22;46196;52.970;6.954;2023-11-22T06:56:52;-1.30;99.90
60353;DHT22;46196;52.970;6.954;2023-11-22T06:59:18;-0.10;99.90
60353;DHT22;46196;52.970;6.954;2023-11-22T07:01:44;2.60;99.90
60353;DHT22;46196;52.970;6.954;2023-11-22T07:04:10;3.00;99.90
60353;DHT22;46196;52.970;6.954;2023-11-22T07:06:37;-0.10;99.90
60353;DHT22;46196;52.970;6.954;2023-11-22T07:09:04;1.90;99.90
60353;DHT22;46196;52.970;6.954;2023-11-22T07:11:30;-1.40;99.90
60353;DHT22;46196;52.970;6.954;2023-11-22T07:13:57;-1.40;99.90
60353;DHT22;46196;52.970;6.954;2023-11-22T07:16:23;0.60;99.90
60353;DHT22;46196;52.970;6.954;2023-11-22T07:18:50;3.60;99.90
60353;DHT22;46196;52.970;6.954;2023-11-22T07:21:16;0.70;99.90
60353;DHT22;46196;52.970;6.954;2023-11-22T07:23:42;0.10;99.90
60353;DHT22;46196;52.970;6.954;2023-11-22T07:26:10;-0.60;99.90
60353;DHT22;46196;52.970;6.954;2023-11-22T07:28:36;2.70;99.90
60353;DHT22;46196;52.970;6.954;2023-11-22T07:31:03;0.10;99.90
60353;DHT22;46196;52.970;6.954;2023-11-22T07:33:31;2.70;99.90
60353;DHT22;46196;52.970;6.954;2023-11-22T07:35:57;2.90;99.90
60353;DHT22;46196;52.970;6.954;2023-11-22T07:38:24;-1.50;99.90
60353;DHT22;46196;52.970;6.954;2023-11-22T07:40:50;2.60;99.90
60353;DHT22;46196;52.970;6.954;2023-11-22T07:43:17;-1.10;99.90
60353;DHT22;46196;52.970;6.954;2023-11-22T07:45:42;1.40;99.90
60353;DHT22;46196;52.970;6.954;2023-11-22T07:48:10;2.70;99.90
60353;DHT22;46196;52.970;6.954;2023-11-22T07:50:38;2.70;99.90
60353;DHT22;46196;52.970;6.954;2023-11-22T07:53:04;-0.50;99.90
60353;DHT22;46196;52.970;6.954;2023-11-22T07:55:31;0.10;99.90
60353;DHT22;46196;52.970;6.954;2023-11-22T07:57:58;-0.30;99.90
60353;DHT22;46196;52.970;6.954;2023-11-22T08:00:23;1.20;99.90
60353;DHT22;46196;52.970;6.954;2023-11-22T08:02:49;0.40;99.90
60353;DHT22;46196;52.970;6.954;2023-11-22T08:05:16;1.30;99.90
60353;DHT22;46196;52.970;6.954;2023-11-22T08:07:42;1.40;99.90
60353;DHT22;46196;52.970;6.954;2023-11-22T08:10:11;3.40;99.90
60353;DHT22;46196;52.970;6.954;2023-11-22T08:12:46;3.30;99.90
60353;DHT22;46196;52.970;6.954;2023-11-22T08:15:14;-0.30;99.90
60353;DHT22;46196;52.970;6.954;2023-11-22T08:17:40;1.80;99.90
60353;DHT22;46196;52.970;6.954;2023-11-22T08:20:06;0.20;99.90
60353;DHT22;46196;52.970;6.954;2023-11-22T08:22:38;4.40;99.90
60353;DHT22;46196;52.970;6.954;2023-11-22T08:25:05;1.20;99.90
60353;DHT22;46196;52.970;6.954;2023-11-22T08:27:31;0.10;99.90
60353;DHT22;46196;52.970;6.954;2023-11-22T08:29:58;1.80;99.90
60353;DHT22;46196;52.970;6.954;2023-11-22T08:34:53;3.30;99.90
60353;DHT22;46196;52.970;6.954;2023-11-22T08:37:18;4.40;99.90
60353;DHT22;46196;52.970;6.954;2023-11-22T08:39:44;1.10;99.90
60353;DHT22;46196;52.970;6.954;2023-11-22T08:42:10;4.80;99.90
60353;DHT22;46196;52.970;6.954;2023-11-22T08:44:36;3.90;99.90
60353;DHT22;46196;52.970;6.954;2023-11-22T08:47:03;1.90;99.90
60353;DHT22;46196;52.970;6.954;2023-11-22T08:49:29;3.30;99.90
60353;DHT22;46196;52.970;6.954;2023-11-22T08:51:54;0.40;99.90
60353;DHT22;46196;52.970;6.954;2023-11-22T08:56:46;1.50;99.90
60353;DHT22;46196;52.970;6.954;2023-11-22T08:59:12;4.80;99.90
60353;DHT22;46196;52.970;6.954;2023-11-22T09:01:38;1.30;99.90
60353;DHT22;46196;52.970;6.954;2023-11-22T09:04:04;0.20;99.90
60353;DHT22;46196;52.970;6.954;2023-11-22T09:06:30;4.00;99.90
60353;DHT22;46196;52.970;6.954;2023-11-22T09:08:55;0.40;99.90
60353;DHT22;46196;52.970;6.954;2023-11-22T09:11:22;1.00;99.90
60353;DHT22;46196;52.970;6.954;2023-11-22T09:13:48;1.10;99.90
60353;DHT22;46196;52.970;6.954;2023-11-22T09:16:15;2.30;99.90
60353;DHT22;46196;52.970;6.954;2023-11-22T09:18:42;2.10;99.90
60353;DHT22;46196;52.970;6.954;2023-11-22T09:21:08;1.30;99.90
60353;DHT22;46196;52.970;6.954;2023-11-22T09:23:35;1.30;99.90
60353;DHT22;46196;52.970;6.954;2023-11-22T09:26:02;2.40;99.90
60353;DHT22;46196;52.970;6.954;2023-11-22T09:28:28;1.30;99.90
60353;DHT22;46196;52.970;6.954;2023-11-22T09:30:54;1.10;99.90
60353;DHT22;46196;52.970;6.954;2023-11-22T09:33:26;3.10;99.90
60353;DHT22;46196;52.970;6.954;2023-11-22T09:35:53;1.90;99.90
60353;DHT22;46196;52.970;6.954;2023-11-22T09:38:18;3.80;99.90
60353;DHT22;46196;52.970;6.954;2023-11-22T09:40:48;2.90;99.90
60353;DHT22;46196;52.970;6.954;2023-11-22T09:43:18;2.20;99.90
60353;DHT22;46196;52.970;6.954;2023-11-22T09:45:46;4.70;99.90
60353;DHT22;46196;52.970;6.954;2023-11-22T09:48:21;2.10;99.90
60353;DHT22;46196;52.970;6.954;2023-11-22T09:53:56;1.70;99.90
60353;DHT22;46196;52.970;6.954;2023-11-22T09:56:24;2.00;99.90
60353;DHT22;46196;52.970;6.954;2023-11-22T09:58:55;3.90;99.90
60353;DHT22;46196;52.970;6.954;2023-11-22T10:01:22;2.50;99.90
60353;DHT22;46196;52.970;6.954;2023-11-22T10:03:48;2.00;99.90
60353;DHT22;46196;52.970;6.954;2023-11-22T10:06:15;2.90;99.90
60353;DHT22;46196;52.970;6.954;2023-11-22T10:08:41;4.20;99.90
60353;DHT22;46196;52.970;6.954;2023-11-22T10:11:07;4.50;99.90
60353;DHT22;46196;52.970;6.954;2023-11-22T10:13:33;5.60;99.90
60353;DHT22;46196;52.970;6.954;2023-11-22T10:16:10;1.70;99.90
60353;DHT22;46196;52.970;6.954;2023-11-22T10:18:46;2.10;99.90
60353;DHT22;46196;52.970;6.954;2023-11-22T10:21:26;2.40;99.90
60353;DHT22;46196;52.970;6.954;2023-11-22T10:23:57;3.90;99.90
60353;DHT22;46196;52.970;6.954;2023-11-22T10:26:25;2.50;99.90
60353;DHT22;46196;52.970;6.954;2023-11-22T10:28:54;2.50;99.90
60353;DHT22;46196;52.970;6.954;2023-11-22T10:31:21;4.10;99.90
60353;DHT22;46196;52.970;6.954;2023-11-22T10:33:48;3.00;99.90
60353;DHT22;46196;52.970;6.954;2023-11-22T10:36:14;2.50;99.90
60353;DHT22;46196;52.970;6.954;2023-11-22T10:38:41;1.80;99.90
60353;DHT22;46196;52.970;6.954;2023-11-22T10:41:08;2.80;99.90
60353;DHT22;46196;52.970;6.954;2023-11-22T10:43:37;3.30;99.90
60353;DHT22;46196;52.970;6.954;2023-11-22T10:46:04;2.50;99.90
60353;DHT22;46196;52.970;6.954;2023-11-22T10:51:03;4.00;99.90
60353;DHT22;46196;52.970;6.954;2023-11-22T10:53:33;3.20;99.90
60353;DHT22;46196;52.970;6.954;2023-11-22T10:56:20;5.50;99.90
60353;DHT22;46196;52.970;6.954;2023-11-22T10:58:50;4.30;99.90
60353;DHT22;46196;52.970;6.954;2023-11-22T11:01:19;6.30;99.90
60353;DHT22;46196;52.970;6.954;2023-11-22T11:03:55;3.70;99.90
60353;DHT22;46196;52.970;6.954;2023-11-22T11:06:27;3.30;99.90
60353;DHT22;46196;52.970;6.954;2023-11-22T11:09:00;3.80;99.90
60353;DHT22;46196;52.970;6.954;2023-11-22T11:11:28;4.00;99.90
60353;DHT22;46196;52.970;6.954;2023-11-22T11:13:54;3.90;99.90
60353;DHT22;46196;52.970;6.954;2023-11-22T11:16:22;5.70;99.90
60353;DHT22;46196;52.970;6.954;2023-11-22T11:18:49;4.40;99.90
60353;DHT22;46196;52.970;6.954;2023-11-22T11:21:15;2.30;99.90
60353;DHT22;46196;52.970;6.954;2023-11-22T11:28:46;3.20;99.90
60353;DHT22;46196;52.970;6.954;2023-11-22T11:31:16;4.30;99.90
60353;DHT22;46196;52.970;6.954;2023-11-22T11:34:00;4.80;99.90
60353;DHT22;46196;52.970;6.954;2023-11-22T11:36:31;4.10;99.90
60353;DHT22;46196;52.970;6.954;2023-11-22T11:38:59;7.00;99.90
60353;DHT22;46196;52.970;6.954;2023-11-22T11:41:28;4.40;99.90
60353;DHT22;46196;52.970;6.954;2023-11-22T11:43:56;5.70;99.90
60353;DHT22;46196;52.970;6.954;2023-11-22T11:46:22;5.20;99.90
60353;DHT22;46196;52.970;6.954;2023-11-22T11:48:52;5.30;99.90
60353;DHT22;46196;52.970;6.954;2023-11-22T11:51:19;5.40;99.90
60353;DHT22;46196;52.970;6.954;2023-11-22T11:53:46;4.70;99.90
60353;DHT22;46196;52.970;6.954;2023-11-22T11:56:12;4.90;99.90
60353;DHT22;46196;52.970;6.954;2023-11-22T11:58:38;5.60;99.90
60353;DHT22;46196;52.970;6.954;2023-11-22T12:01:05;3.90;99.90
60353;DHT22;46196;52.970;6.954;2023-11-22T12:03:35;6.20;99.90
60353;DHT22;46196;52.970;6.954;2023-11-22T12:06:01;7.00;99.90
60353;DHT22;46196;52.970;6.954;2023-11-22T12:08:28;4.70;99.90
60353;DHT22;46196;52.970;6.954;2023-11-22T12:11:02;5.90;99.90
60353;DHT22;46196;52.970;6.954;2023-11-22T12:13:29;5.90;99.90
60353;DHT22;46196;52.970;6.954;2023-11-22T12:15:55;5.20;99.90
60353;DHT22;46196;52.970;6.954;2023-11-22T12:20:59;4.70;99.90
60353;DHT22;46196;52.970;6.954;2023-11-22T12:23:26;5.60;99.90
60353;DHT22;46196;52.970;6.954;2023-11-22T12:25:56;5.10;99.90
60353;DHT22;46196;52.970;6.954;2023-11-22T12:28:23;4.80;99.90
60353;DHT22;46196;52.970;6.954;2023-11-22T12:30:49;6.90;99.90
60353;DHT22;46196;52.970;6.954;2023-11-22T12:33:16;5.00;99.90
60353;DHT22;46196;52.970;6.954;2023-11-22T12:35:43;4.80;99.90
60353;DHT22;46196;52.970;6.954;2023-11-22T12:40:36;4.60;99.90
60353;DHT22;46196;52.970;6.954;2023-11-22T12:43:03;5.70;99.90
60353;DHT22;46196;52.970;6.954;2023-11-22T12:45:30;4.00;99.90
60353;DHT22;46196;52.970;6.954;2023-11-22T12:47:58;4.30;99.90
60353;DHT22;46196;52.970;6.954;2023-11-22T12:52:59;4.50;99.90
60353;DHT22;46196;52.970;6.954;2023-11-22T12:55:25;8.30;99.90
60353;DHT22;46196;52.970;6.954;2023-11-22T12:58:00;4.10;99.90
60353;DHT22;46196;52.970;6.954;2023-11-22T13:00:29;4.70;99.90
60353;DHT22;46196;52.970;6.954;2023-11-22T13:02:58;6.90;99.90
60353;DHT22;46196;52.970;6.954;2023-11-22T13:05:24;4.20;99.90
60353;DHT22;46196;52.970;6.954;2023-11-22T13:07:51;4.50;99.90
60353;DHT22;46196;52.970;6.954;2023-11-22T13:10:18;5.80;99.90
60353;DHT22;46196;52.970;6.954;2023-11-22T13:12:44;4.00;99.90
60353;DHT22;46196;52.970;6.954;2023-11-22T13:15:10;6.70;99.90
60353;DHT22;46196;52.970;6.954;2023-11-22T13:17:39;5.00;99.90
60353;DHT22;46196;52.970;6.954;2023-11-22T13:20:08;4.50;99.90
60353;DHT22;46196;52.970;6.954;2023-11-22T13:22:43;4.60;99.90
60353;DHT22;46196;52.970;6.954;2023-11-22T13:25:09;5.00;99.90
60353;DHT22;46196;52.970;6.954;2023-11-22T13:27:36;4.30;99.90
60353;DHT22;46196;52.970;6.954;2023-11-22T13:30:03;7.70;99.90
60353;DHT22;46196;52.970;6.954;2023-11-22T13:32:30;5.90;99.90
60353;DHT22;46196;52.970;6.954;2023-11-22T13:34:56;4.40;99.90
60353;DHT22;46196;52.970;6.954;2023-11-22T13:37:26;4.90;99.90
60353;DHT22;46196;52.970;6.954;2023-11-22T13:39:52;5.00;99.90
60353;DHT22;46196;52.970;6.954;2023-11-22T13:44:44;3.30;99.90
60353;DHT22;46196;52.970;6.954;2023-11-22T13:47:12;4.90;99.90
60353;DHT22;46196;52.970;6.954;2023-11-22T13:49:39;4.10;99.90
60353;DHT22;46196;52.970;6.954;2023-11-22T13:52:05;4.20;99.90
60353;DHT22;46196;52.970;6.954;2023-11-22T13:54:31;4.80;99.90
60353;DHT22;46196;52.970;6.954;2023-11-22T13:56:59;6.20;99.90
60353;DHT22;46196;52.970;6.954;2023-11-22T13:59:25;4.00;99.90
60353;DHT22;46196;52.970;6.954;2023-11-22T14:01:51;6.40;99.90
60353;DHT22;46196;52.970;6.954;2023-11-22T14:04:17;4.80;99.90
60353;DHT22;46196;52.970;6.954;2023-11-22T14:06:43;3.40;99.90
60353;DHT22;46196;52.970;6.954;2023-11-22T14:09:09;4.20;99.90
60353;DHT22;46196;52.970;6.954;2023-11-22T14:11:38;4.50;99.90
60353;DHT22;46196;52.970;6.954;2023-11-22T14:14:03;3.70;99.90
60353;DHT22;46196;52.970;6.954;2023-11-22T14:16:29;7.30;99.90
60353;DHT22;46196;52.970;6.954;2023-11-22T14:19:00;4.50;99.90
60353;DHT22;46196;52.970;6.954;2023-11-22T14:21:25;4.90;99.90
60353;DHT22;46196;52.970;6.954;2023-11-22T14:23:52;4.10;99.90
60353;DHT22;46196;52.970;6.954;2023-11-22T14:26:18;4.40;99.90
60353;DHT22;46196;52.970;6.954;2023-11-22T14:28:44;4.60;99.90
60353;DHT22;46196;52.970;6.954;2023-11-22T14:31:10;3.80;99.90
60353;DHT22;46196;52.970;6.954;2023-11-22T14:33:36;3.80;99.90
60353;DHT22;46196;52.970;6.954;2023-11-22T14:38:27;7.70;99.90
60353;DHT22;46196;52.970;6.954;2023-11-22T14:40:53;7.40;99.90
60353;DHT22;46196;52.970;6.954;2023-11-22T14:43:19;4.40;99.90
60353;DHT22;46196;52.970;6.954;2023-11-22T14:45:44;3.40;99.90
60353;DHT22;46196;52.970;6.954;2023-11-22T14:48:11;5.30;99.90
60353;DHT22;46196;52.970;6.954;2023-11-22T14:50:38;6.40;99.90
60353;DHT22;46196;52.970;6.954;2023-11-22T14:53:06;3.70;99.90
60353;DHT22;46196;52.970;6.954;2023-11-22T14:55:33;7.40;99.90
60353;DHT22;46196;52.970;6.954;2023-11-22T14:58:03;4.20;99.90
60353;DHT22;46196;52.970;6.954;2023-11-22T15:02:56;6.70;99.90
60353;DHT22;46196;52.970;6.954;2023-11-22T15:05:22;6.60;99.90
60353;DHT22;46196;52.970;6.954;2023-11-22T15:07:48;4.30;99.90
60353;DHT22;46196;52.970;6.954;2023-11-22T15:12:45;7.40;99.90
60353;DHT22;46196;52.970;6.954;2023-11-22T15:15:12;4.90;99.90
60353;DHT22;46196;52.970;6.954;2023-11-22T15:17:38;4.50;99.90
60353;DHT22;46196;52.970;6.954;2023-11-22T15:20:06;5.00;99.90
60353;DHT22;46196;52.970;6.954;2023-11-22T15:22:35;6.30;99.90
60353;DHT22;46196;52.970;6.954;2023-11-22T15:25:01;7.40;99.90
60353;DHT22;46196;52.970;6.954;2023-11-22T15:27:26;5.80;99.90
60353;DHT22;46196;52.970;6.954;2023-11-22T15:29:52;3.60;99.90
60353;DHT22;46196;52.970;6.954;2023-11-22T15:32:18;4.30;99.90
60353;DHT22;46196;52.970;6.954;2023-11-22T15:34:43;2.90;99.90
60353;DHT22;46196;52.970;6.954;2023-11-22T15:37:09;3.80;99.90
60353;DHT22;46196;52.970;6.954;2023-11-22T15:39:37;5.40;99.90
60353;DHT22;46196;52.970;6.954;2023-11-22T15:42:03;4.10;99.90
60353;DHT22;46196;52.970;6.954;2023-11-22T15:44:31;6.60;99.90
60353;DHT22;46196;52.970;6.954;2023-11-22T15:46:58;2.90;99.90
60353;DHT22;46196;52.970;6.954;2023-11-22T15:51:50;4.50;99.90
60353;DHT22;46196;52.970;6.954;2023-11-22T15:54:15;6.10;99.90
60353;DHT22;46196;52.970;6.954;2023-11-22T15:56:43;3.00;99.90
60353;DHT22;46196;52.970;6.954;2023-11-22T15:59:11;3.90;99.90
60353;DHT22;46196;52.970;6.954;2023-11-22T16:01:36;4.30;99.90
60353;DHT22;46196;52.970;6.954;2023-11-22T16:06:30;6.90;99.90
60353;DHT22;46196;52.970;6.954;2023-11-22T16:08:56;3.50;99.90
60353;DHT22;46196;52.970;6.954;2023-11-22T16:11:22;2.90;99.90
60353;DHT22;46196;52.970;6.954;2023-11-22T16:13:48;5.70;99.90
60353;DHT22;46196;52.970;6.954;2023-11-22T16:18:39;3.30;99.90
60353;DHT22;46196;52.970;6.954;2023-11-22T16:21:06;7.30;99.90
60353;DHT22;46196;52.970;6.954;2023-11-22T16:23:33;4.60;99.90
60353;DHT22;46196;52.970;6.954;2023-11-22T16:26:05;6.40;99.90
60353;DHT22;46196;52.970;6.954;2023-11-22T16:28:31;3.80;99.90
60353;DHT22;46196;52.970;6.954;2023-11-22T16:30:59;3.60;99.90
60353;DHT22;46196;52.970;6.954;2023-11-22T16:33:25;4.20;99.90
60353;DHT22;46196;52.970;6.954;2023-11-22T16:35:51;3.40;99.90
60353;DHT22;46196;52.970;6.954;2023-11-22T16:38:16;4.80;99.90